sensor_id;sensor_type;location;lat;lon;timestamp;pressure;altitude;pressure_sealevel;temperature;humidity
50854;BME280;44154;45.506;-122.806;2023-05-01T00:01:37;100410.84;;;25.50;37.07
50854;BME280;44154;45.506;-122.806;2023-05-01T00:04:04;100398.81;;;25.56;37.06
50854;BME280;44154;45.506;-122.806;2023-05-01T00:06:30;100405.09;;;25.52;36.89
50854;BME280;44154;45.506;-122.806;2023-05-01T00:08:58;100402.91;;;25.54;36.87
50854;BME280;44154;45.506;-122.806;2023-05-01T00:11:24;100406.47;;;25.59;36.77
50854;BME280;44154;45.506;-122.806;2023-05-01T00:13:50;100400.72;;;25.61;36.64
50854;BME280;44154;45.506;-122.806;2023-05-01T00:16:18;100407.59;;;25.63;36.58
50854;BME280;44154;45.506;-122.806;2023-05-01T00:18:45;100405.94;;;25.62;36.38
50854;BME280;44154;45.506;-122.806;2023-05-01T00:21:11;100396.34;;;25.60;36.42
50854;BME280;44154;45.506;-122.806;2023-05-01T00:23:37;100407.34;;;25.70;36.53
50854;BME280;44154;45.506;-122.806;2023-05-01T00:26:03;100408.72;;;25.73;36.33
50854;BME280;44154;45.506;-122.806;2023-05-01T00:28:30;100378.25;;;25.54;36.24
50854;BME280;44154;45.506;-122.806;2023-05-01T00:30:56;100404.31;;;25.72;36.09
50854;BME280;44154;45.506;-122.806;2023-05-01T00:33:23;100406.50;;;25.75;36.42
50854;BME280;44154;45.506;-122.806;2023-05-01T00:35:49;100401.84;;;25.65;36.57
50854;BME280;44154;45.506;-122.806;2023-05-01T00:38:16;100395.25;;;25.61;36.54
50854;BME280;44154;45.506;-122.806;2023-05-01T00:40:46;100380.44;;;25.52;36.59
50854;BME280;44154;45.506;-122.806;2023-05-01T00:43:12;100402.91;;;25.64;36.48
50854;BME280;44154;45.506;-122.806;2023-05-01T00:45:40;100400.47;;;25.57;36.13
50854;BME280;44154;45.506;-122.806;2023-05-01T00:48:08;100396.34;;;25.55;36.29
50854;BME280;44154;45.506;-122.806;2023-05-01T00:50:34;100396.34;;;25.60;35.80
50854;BME280;44154;45.506;-122.806;2023-05-01T00:53:01;100388.94;;;25.60;35.83
50854;BME280;44154;45.506;-122.806;2023-05-01T00:55:29;100389.75;;;25.61;35.59
50854;BME280;44154;45.506;-122.806;2023-05-01T00:57:56;100385.91;;;25.57;35.88
50854;BME280;44154;45.506;-122.806;2023-05-01T01:00:23;100385.66;;;25.53;35.53
50854;BME280;44154;45.506;-122.806;2023-05-01T01:02:49;100375.50;;;25.43;35.41
50854;BME280;44154;45.506;-122.806;2023-05-01T01:05:17;100378.22;;;25.43;35.13
50854;BME280;44154;45.506;-122.806;2023-05-01T01:07:52;100371.31;;;25.25;35.19
50854;BME280;44154;45.506;-122.806;2023-05-01T01:10:48;100374.66;;;25.38;35.39
50854;BME280;44154;45.506;-122.806;2023-05-01T01:13:30;100380.44;;;25.41;35.08
50854;BME280;44154;45.506;-122.806;2023-05-01T01:16:22;100379.06;;;25.49;35.33
50854;BME280;44154;45.506;-122.806;2023-05-01T01:21:48;100375.22;;;25.55;36.74
50854;BME280;44154;45.506;-122.806;2023-05-01T01:24:31;100381.00;;;25.59;37.80
50854;BME280;44154;45.506;-122.806;2023-05-01T01:35:19;100371.97;;;25.63;37.60
50854;BME280;44154;45.506;-122.806;2023-05-01T01:38:05;100369.22;;;25.74;37.70
50854;BME280;44154;45.506;-122.806;2023-05-01T01:40:38;100359.09;;;25.69;37.20
50854;BME280;44154;45.506;-122.806;2023-05-01T01:43:11;100360.19;;;25.78;37.28
50854;BME280;44154;45.506;-122.806;2023-05-01T01:45:39;100360.47;;;25.82;37.09
50854;BME280;44154;45.506;-122.806;2023-05-01T01:48:10;100351.13;;;25.78;37.16
50854;BME280;44154;45.506;-122.806;2023-05-01T01:50:41;100352.25;;;25.82;37.44
50854;BME280;44154;45.506;-122.806;2023-05-01T01:53:12;100353.34;;;25.86;37.28
50854;BME280;44154;45.506;-122.806;2023-05-01T01:55:43;100350.31;;;25.88;37.19
50854;BME280;44154;45.506;-122.806;2023-05-01T01:58:11;100357.19;;;25.90;37.09
50854;BME280;44154;45.506;-122.806;2023-05-01T02:00:39;100361.53;;;25.91;37.22
50854;BME280;44154;45.506;-122.806;2023-05-01T02:03:08;100347.84;;;25.86;36.86
50854;BME280;44154;45.506;-122.806;2023-05-01T02:05:37;100355.53;;;25.94;36.95
50854;BME280;44154;45.506;-122.806;2023-05-01T02:08:04;100359.94;;;25.90;36.61
50854;BME280;44154;45.506;-122.806;2023-05-01T02:10:32;100347.84;;;25.86;36.55
50854;BME280;44154;45.506;-122.806;2023-05-01T02:12:59;100368.69;;;25.97;36.37
50854;BME280;44154;45.506;-122.806;2023-05-01T02:15:27;100359.38;;;25.83;39.51
50854;BME280;44154;45.506;-122.806;2023-05-01T02:17:54;100373.63;;;25.85;38.58
50854;BME280;44154;45.506;-122.806;2023-05-01T02:20:21;100368.41;;;25.78;37.68
50854;BME280;44154;45.506;-122.806;2023-05-01T02:22:48;100373.06;;;25.78;37.01
50854;BME280;44154;45.506;-122.806;2023-05-01T02:25:17;100380.19;;;25.79;36.80
50854;BME280;44154;45.506;-122.806;2023-05-01T02:27:56;100380.47;;;25.83;36.33
50854;BME280;44154;45.506;-122.806;2023-05-01T02:30:24;100378.56;;;25.73;36.88
50854;BME280;44154;45.506;-122.806;2023-05-01T02:32:51;100374.69;;;25.74;36.37
50854;BME280;44154;45.506;-122.806;2023-05-01T02:35:17;100385.41;;;25.80;36.37
50854;BME280;44154;45.506;-122.806;2023-05-01T02:37:44;100383.78;;;25.85;36.10
50854;BME280;44154;45.506;-122.806;2023-05-01T02:40:11;100361.84;;;25.74;36.22
50854;BME280;44154;45.506;-122.806;2023-05-01T02:42:44;100377.72;;;25.88;35.90
50854;BME280;44154;45.506;-122.806;2023-05-01T02:45:22;100371.97;;;25.84;37.07
50854;BME280;44154;45.506;-122.806;2023-05-01T02:47:51;100370.88;;;25.75;37.26
50854;BME280;44154;45.506;-122.806;2023-05-01T02:50:20;100374.16;;;25.77;37.17
50854;BME280;44154;45.506;-122.806;2023-05-01T02:52:47;100368.69;;;25.72;37.74
50854;BME280;44154;45.506;-122.806;2023-05-01T02:55:13;100352.47;;;25.50;38.31
50854;BME280;44154;45.506;-122.806;2023-05-01T02:57:40;100372.78;;;25.69;38.22
50854;BME280;44154;45.506;-122.806;2023-05-01T03:00:07;100381.00;;;25.79;38.46
50854;BME280;44154;45.506;-122.806;2023-05-01T03:02:41;100371.41;;;25.77;38.22
50854;BME280;44154;45.506;-122.806;2023-05-01T03:05:07;100377.44;;;25.84;37.92
50854;BME280;44154;45.506;-122.806;2023-05-01T03:07:34;100370.59;;;25.71;37.47
50854;BME280;44154;45.506;-122.806;2023-05-01T03:10:01;100372.25;;;25.67;37.45
50854;BME280;44154;45.506;-122.806;2023-05-01T03:12:31;100374.97;;;25.62;37.83
50854;BME280;44154;45.506;-122.806;2023-05-01T03:14:58;100378.53;;;25.68;37.30
50854;BME280;44154;45.506;-122.806;2023-05-01T03:17:25;100373.31;;;25.61;37.32
50854;BME280;44154;45.506;-122.806;2023-05-01T03:19:51;100386.22;;;25.66;37.18
50854;BME280;44154;45.506;-122.806;2023-05-01T03:22:18;100380.47;;;25.62;36.98
50854;BME280;44154;45.506;-122.806;2023-05-01T03:24:44;100394.16;;;25.72;36.79
50854;BME280;44154;45.506;-122.806;2023-05-01T03:27:12;100366.75;;;25.62;36.66
50854;BME280;44154;45.506;-122.806;2023-05-01T03:29:38;100398.31;;;25.80;36.40
50854;BME280;44154;45.506;-122.806;2023-05-01T03:32:05;100368.66;;;25.67;36.22
50854;BME280;44154;45.506;-122.806;2023-05-01T03:34:31;100394.44;;;25.81;36.25
50854;BME280;44154;45.506;-122.806;2023-05-01T03:36:57;100400.50;;;25.83;36.33
50854;BME280;44154;45.506;-122.806;2023-05-01T03:39:23;100399.38;;;25.84;36.25
50854;BME280;44154;45.506;-122.806;2023-05-01T03:41:50;100403.75;;;25.70;35.94
50854;BME280;44154;45.506;-122.806;2023-05-01T03:44:16;100402.09;;;25.63;36.02
50854;BME280;44154;45.506;-122.806;2023-05-01T03:46:42;100386.47;;;25.49;35.44
50854;BME280;44154;45.506;-122.806;2023-05-01T03:49:09;100407.03;;;25.61;36.00
50854;BME280;44154;45.506;-122.806;2023-05-01T03:51:35;100403.75;;;25.70;35.92
50854;BME280;44154;45.506;-122.806;2023-05-01T03:54:01;100404.31;;;25.77;35.71
50854;BME280;44154;45.506;-122.806;2023-05-01T03:56:27;100410.63;;;25.83;35.73
50854;BME280;44154;45.506;-122.806;2023-05-01T03:59:00;100396.34;;;25.75;35.85
50854;BME280;44154;45.506;-122.806;2023-05-01T04:01:26;100413.09;;;25.89;35.52
50854;BME280;44154;45.506;-122.806;2023-05-01T04:03:52;100424.31;;;25.93;35.51
50854;BME280;44154;45.506;-122.806;2023-05-01T04:06:18;100415.84;;;25.89;35.63
50854;BME280;44154;45.506;-122.806;2023-05-01T04:08:44;100428.72;;;25.94;35.63
50854;BME280;44154;45.506;-122.806;2023-05-01T04:11:11;100392.78;;;25.70;35.67
50854;BME280;44154;45.506;-122.806;2023-05-01T04:13:37;100429.28;;;25.91;35.84
50854;BME280;44154;45.506;-122.806;2023-05-01T04:16:03;100427.63;;;25.95;35.85
50854;BME280;44154;45.506;-122.806;2023-05-01T04:18:30;100435.28;;;25.93;35.91
50854;BME280;44154;45.506;-122.806;2023-05-01T04:20:56;100436.13;;;25.93;35.87
50854;BME280;44154;45.506;-122.806;2023-05-01T04:23:23;100432.84;;;25.96;35.75
50854;BME280;44154;45.506;-122.806;2023-05-01T04:25:49;100433.94;;;25.95;35.76
50854;BME280;44154;45.506;-122.806;2023-05-01T04:28:15;100436.13;;;25.93;35.62
50854;BME280;44154;45.506;-122.806;2023-05-01T04:30:42;100441.63;;;25.93;35.81
50854;BME280;44154;45.506;-122.806;2023-05-01T04:33:08;100439.69;;;25.89;35.62
50854;BME280;44154;45.506;-122.806;2023-05-01T04:35:38;100443.78;;;25.91;35.54
50854;BME280;44154;45.506;-122.806;2023-05-01T04:38:05;100429.00;;;25.82;35.68
50854;BME280;44154;45.506;-122.806;2023-05-01T04:40:31;100437.78;;;25.89;35.64
50854;BME280;44154;45.506;-122.806;2023-05-01T04:42:58;100434.22;;;25.89;35.64
50854;BME280;44154;45.506;-122.806;2023-05-01T04:45:24;100442.16;;;25.90;35.75
50854;BME280;44154;45.506;-122.806;2023-05-01T04:47:50;100435.84;;;25.90;35.99
50854;BME280;44154;45.506;-122.806;2023-05-01T04:50:16;100449.28;;;25.91;35.83
50854;BME280;44154;45.506;-122.806;2023-05-01T04:52:43;100448.19;;;25.92;35.72
50854;BME280;44154;45.506;-122.806;2023-05-01T04:55:09;100446.25;;;25.93;35.98
50854;BME280;44154;45.506;-122.806;2023-05-01T04:57:36;100449.28;;;25.91;36.05
50854;BME280;44154;45.506;-122.806;2023-05-01T05:00:02;100447.66;;;25.90;35.71
50854;BME280;44154;45.506;-122.806;2023-05-01T05:02:28;100443.25;;;25.89;35.67
50854;BME280;44154;45.506;-122.806;2023-05-01T05:04:54;100443.78;;;25.91;35.78
50854;BME280;44154;45.506;-122.806;2023-05-01T05:07:23;100449.28;;;25.91;35.84
50854;BME280;44154;45.506;-122.806;2023-05-01T05:09:50;100450.94;;;25.92;35.97
50854;BME280;44154;45.506;-122.806;2023-05-01T05:12:16;100440.53;;;25.89;35.73
50854;BME280;44154;45.506;-122.806;2023-05-01T05:14:42;100448.47;;;25.91;35.57
50854;BME280;44154;45.506;-122.806;2023-05-01T05:17:08;100450.69;;;25.89;35.74
50854;BME280;44154;45.506;-122.806;2023-05-01T05:19:34;100456.97;;;25.89;35.64
50854;BME280;44154;45.506;-122.806;2023-05-01T05:22:01;100451.47;;;25.89;35.70
50854;BME280;44154;45.506;-122.806;2023-05-01T05:24:29;100465.47;;;25.88;35.58
50854;BME280;44154;45.506;-122.806;2023-05-01T05:26:55;100446.53;;;25.81;35.89
50854;BME280;44154;45.506;-122.806;2023-05-01T05:29:21;100450.09;;;25.87;35.43
50854;BME280;44154;45.506;-122.806;2023-05-01T05:31:48;100445.44;;;25.82;35.53
50854;BME280;44154;45.506;-122.806;2023-05-01T05:34:14;100437.78;;;25.79;35.56
50854;BME280;44154;45.506;-122.806;2023-05-01T05:36:40;100448.16;;;25.77;35.21
50854;BME280;44154;45.506;-122.806;2023-05-01T05:39:06;100443.22;;;25.74;35.48
50854;BME280;44154;45.506;-122.806;2023-05-01T05:41:32;100444.88;;;25.75;35.42
50854;BME280;44154;45.506;-122.806;2023-05-01T05:43:58;100435.50;;;25.55;35.61
50854;BME280;44154;45.506;-122.806;2023-05-01T05:46:25;100439.66;;;25.53;35.75
50854;BME280;44154;45.506;-122.806;2023-05-01T05:48:51;100424.25;;;25.41;36.06
50854;BME280;44154;45.506;-122.806;2023-05-01T05:51:17;100416.88;;;25.37;35.77
50854;BME280;44154;45.506;-122.806;2023-05-01T05:53:44;100445.41;;;25.51;35.91
50854;BME280;44154;45.506;-122.806;2023-05-01T05:56:10;100427.00;;;25.41;35.95
50854;BME280;44154;45.506;-122.806;2023-05-01T05:58:36;100444.28;;;25.52;35.94
50854;BME280;44154;45.506;-122.806;2023-05-01T06:01:02;100439.09;;;25.56;36.12
50854;BME280;44154;45.506;-122.806;2023-05-01T06:03:29;100448.97;;;25.62;36.13
50854;BME280;44154;45.506;-122.806;2023-05-01T06:05:55;100441.03;;;25.66;36.04
50854;BME280;44154;45.506;-122.806;2023-05-01T06:08:22;100435.00;;;25.69;35.55
50854;BME280;44154;45.506;-122.806;2023-05-01T06:10:48;100422.66;;;25.61;35.61
50854;BME280;44154;45.506;-122.806;2023-05-01T06:13:14;100429.53;;;25.74;35.38
50854;BME280;44154;45.506;-122.806;2023-05-01T06:15:40;100431.44;;;25.73;35.29
50854;BME280;44154;45.506;-122.806;2023-05-01T06:18:07;100429.00;;;25.72;35.45
50854;BME280;44154;45.506;-122.806;2023-05-01T06:20:34;100419.91;;;25.61;35.14
50854;BME280;44154;45.506;-122.806;2023-05-01T06:23:00;100434.47;;;25.72;35.52
50854;BME280;44154;45.506;-122.806;2023-05-01T06:25:26;100420.75;;;25.72;35.47
50854;BME280;44154;45.506;-122.806;2023-05-01T06:27:53;100420.19;;;25.70;35.39
50854;BME280;44154;45.506;-122.806;2023-05-01T06:30:19;100427.88;;;25.68;35.38
50854;BME280;44154;45.506;-122.806;2023-05-01T06:32:46;100430.91;;;25.66;35.42
50854;BME280;44154;45.506;-122.806;2023-05-01T06:35:13;100432.25;;;25.63;35.11
50854;BME280;44154;45.506;-122.806;2023-05-01T06:37:39;100411.97;;;25.54;35.02
50854;BME280;44154;45.506;-122.806;2023-05-01T06:40:07;100415.53;;;25.60;34.64
50854;BME280;44154;45.506;-122.806;2023-05-01T06:42:38;100433.91;;;25.65;35.15
50854;BME280;44154;45.506;-122.806;2023-05-01T06:45:08;100423.50;;;25.61;35.22
50854;BME280;44154;45.506;-122.806;2023-05-01T06:47:34;100408.38;;;25.49;35.25
50854;BME280;44154;45.506;-122.806;2023-05-01T06:50:01;100416.06;;;25.57;35.26
50854;BME280;44154;45.506;-122.806;2023-05-01T06:52:27;100410.84;;;25.50;35.00
50854;BME280;44154;45.506;-122.806;2023-05-01T06:54:53;100417.16;;;25.51;35.10
50854;BME280;44154;45.506;-122.806;2023-05-01T06:57:20;100410.00;;;25.50;35.25
50854;BME280;44154;45.506;-122.806;2023-05-01T06:59:46;100410.28;;;25.48;35.06
50854;BME280;44154;45.506;-122.806;2023-05-01T07:02:12;100425.38;;;25.45;35.20
50854;BME280;44154;45.506;-122.806;2023-05-01T07:04:38;100403.13;;;25.32;35.28
50854;BME280;44154;45.506;-122.806;2023-05-01T07:07:04;100420.44;;;25.48;35.01
50854;BME280;44154;45.506;-122.806;2023-05-01T07:09:31;100408.91;;;25.40;35.18
50854;BME280;44154;45.506;-122.806;2023-05-01T07:11:57;100426.47;;;25.50;35.24
50854;BME280;44154;45.506;-122.806;2023-05-01T07:14:23;100413.00;;;25.38;35.16
50854;BME280;44154;45.506;-122.806;2023-05-01T07:16:49;100420.44;;;25.48;34.98
50854;BME280;44154;45.506;-122.806;2023-05-01T07:19:16;100413.56;;;25.45;35.22
50854;BME280;44154;45.506;-122.806;2023-05-01T07:21:42;100408.09;;;25.45;34.92
50854;BME280;44154;45.506;-122.806;2023-05-01T07:24:08;100400.13;;;25.33;35.11
50854;BME280;44154;45.506;-122.806;2023-05-01T07:26:35;100414.13;;;25.37;35.18
50854;BME280;44154;45.506;-122.806;2023-05-01T07:29:02;100412.19;;;25.37;35.29
50854;BME280;44154;45.506;-122.806;2023-05-01T07:31:29;100394.31;;;25.24;35.31
50854;BME280;44154;45.506;-122.806;2023-05-01T07:33:55;100399.25;;;25.27;35.25
50854;BME280;44154;45.506;-122.806;2023-05-01T07:36:21;100400.94;;;25.34;35.28
50854;BME280;44154;45.506;-122.806;2023-05-01T07:38:48;100410.28;;;25.38;34.99
50854;BME280;44154;45.506;-122.806;2023-05-01T07:41:14;100409.19;;;25.39;35.34
50854;BME280;44154;45.506;-122.806;2023-05-01T07:43:40;100405.06;;;25.36;35.20
50854;BME280;44154;45.506;-122.806;2023-05-01T07:46:07;100402.31;;;25.31;35.36
50854;BME280;44154;45.506;-122.806;2023-05-01T07:48:33;100411.28;;;25.26;35.15
50854;BME280;44154;45.506;-122.806;2023-05-01T07:51:02;100405.28;;;25.24;35.37
50854;BME280;44154;45.506;-122.806;2023-05-01T07:53:29;100406.91;;;25.20;35.38
50854;BME280;44154;45.506;-122.806;2023-05-01T07:56:04;100402.25;;;25.16;35.44
50854;BME280;44154;45.506;-122.806;2023-05-01T07:58:31;100380.56;;;25.04;35.16
50854;BME280;44154;45.506;-122.806;2023-05-01T08:00:57;100399.22;;;25.17;35.35
50854;BME280;44154;45.506;-122.806;2023-05-01T08:03:24;100386.06;;;25.14;35.31
50854;BME280;44154;45.506;-122.806;2023-05-01T08:05:50;100400.06;;;25.23;35.35
50854;BME280;44154;45.506;-122.806;2023-05-01T08:08:16;100377.84;;;25.09;35.18
50854;BME280;44154;45.506;-122.806;2023-05-01T08:10:45;100403.88;;;25.22;35.18
50854;BME280;44154;45.506;-122.806;2023-05-01T08:13:11;100398.16;;;25.23;35.13
50854;BME280;44154;45.506;-122.806;2023-05-01T08:15:37;100396.53;;;25.27;35.26
50854;BME280;44154;45.506;-122.806;2023-05-01T08:18:07;100399.81;;;25.24;35.12
50854;BME280;44154;45.506;-122.806;2023-05-01T08:20:35;100403.06;;;25.26;35.38
50854;BME280;44154;45.506;-122.806;2023-05-01T08:23:01;100396.53;;;25.27;35.21
50854;BME280;44154;45.506;-122.806;2023-05-01T08:25:28;100397.06;;;25.24;35.10
50854;BME280;44154;45.506;-122.806;2023-05-01T08:27:56;100403.06;;;25.26;35.39
50854;BME280;44154;45.506;-122.806;2023-05-01T08:30:22;100395.69;;;25.17;35.40
50854;BME280;44154;45.506;-122.806;2023-05-01T08:32:48;100392.38;;;25.15;35.24
50854;BME280;44154;45.506;-122.806;2023-05-01T08:35:15;100394.53;;;25.07;35.70
50854;BME280;44154;45.506;-122.806;2023-05-01T08:37:41;100388.22;;;25.02;35.65
50854;BME280;44154;45.506;-122.806;2023-05-01T08:40:08;100391.53;;;25.04;35.68
50854;BME280;44154;45.506;-122.806;2023-05-01T08:42:34;100384.38;;;25.03;35.85
50854;BME280;44154;45.506;-122.806;2023-05-01T08:45:02;100359.69;;;24.87;35.78
50854;BME280;44154;45.506;-122.806;2023-05-01T08:47:29;100381.09;;;25.01;35.93
50854;BME280;44154;45.506;-122.806;2023-05-01T08:49:57;100367.94;;;24.92;35.63
50854;BME280;44154;45.506;-122.806;2023-05-01T08:52:26;100383.03;;;25.05;35.69
50854;BME280;44154;45.506;-122.806;2023-05-01T08:54:54;100375.63;;;25.06;35.48
50854;BME280;44154;45.506;-122.806;2023-05-01T08:57:21;100371.78;;;25.02;35.38
50854;BME280;44154;45.506;-122.806;2023-05-01T08:59:49;100380.03;;;25.07;35.57
50854;BME280;44154;45.506;-122.806;2023-05-01T09:02:16;100378.91;;;25.03;35.69
50854;BME280;44154;45.506;-122.806;2023-05-01T09:04:43;100370.97;;;25.01;35.84
50854;BME280;44154;45.506;-122.806;2023-05-01T09:07:10;100372.06;;;25.00;35.78
50854;BME280;44154;45.506;-122.806;2023-05-01T09:09:37;100367.13;;;24.97;35.59
50854;BME280;44154;45.506;-122.806;2023-05-01T09:12:24;100355.88;;;24.88;35.68
50854;BME280;44154;45.506;-122.806;2023-05-01T09:14:52;100358.88;;;24.87;35.96
50854;BME280;44154;45.506;-122.806;2023-05-01T09:17:20;100353.63;;;24.75;35.89
50854;BME280;44154;45.506;-122.806;2023-05-01T09:19:47;100360.19;;;24.79;35.95
50854;BME280;44154;45.506;-122.806;2023-05-01T09:22:14;100345.38;;;24.70;35.92
50854;BME280;44154;45.506;-122.806;2023-05-01T09:24:43;100356.38;;;24.75;35.81
50854;BME280;44154;45.506;-122.806;2023-05-01T09:27:14;100350.03;;;24.69;35.68
50854;BME280;44154;45.506;-122.806;2023-05-01T09:29:41;100353.34;;;24.76;35.82
50854;BME280;44154;45.506;-122.806;2023-05-01T09:32:16;100353.59;;;24.70;35.77
50854;BME280;44154;45.506;-122.806;2023-05-01T09:34:43;100351.13;;;24.68;35.94
50854;BME280;44154;45.506;-122.806;2023-05-01T09:37:32;100346.47;;;24.69;35.99
50854;BME280;44154;45.506;-122.806;2023-05-01T09:40:11;100350.31;;;24.68;36.16
50854;BME280;44154;45.506;-122.806;2023-05-01T09:42:39;100340.72;;;24.65;36.23
50854;BME280;44154;45.506;-122.806;2023-05-01T09:45:12;100329.69;;;24.55;36.38
50854;BME280;44154;45.506;-122.806;2023-05-01T09:47:42;100341.25;;;24.62;36.78
50854;BME280;44154;45.506;-122.806;2023-05-01T09:50:09;100329.44;;;24.56;36.81
50854;BME280;44154;45.506;-122.806;2023-05-01T09:52:35;100333.56;;;24.59;36.99
50854;BME280;44154;45.506;-122.806;2023-05-01T09:55:15;100339.88;;;24.59;37.01
50854;BME280;44154;45.506;-122.806;2023-05-01T09:57:43;100343.16;;;24.62;37.07
50854;BME280;44154;45.506;-122.806;2023-05-01T10:00:10;100339.25;;;24.57;37.04
50854;BME280;44154;45.506;-122.806;2023-05-01T10:02:40;100335.16;;;24.55;36.80
50854;BME280;44154;45.506;-122.806;2023-05-01T10:05:08;100342.00;;;24.57;37.00
50854;BME280;44154;45.506;-122.806;2023-05-01T10:07:35;100347.19;;;24.54;37.24
50854;BME280;44154;45.506;-122.806;2023-05-01T10:10:22;100337.06;;;24.49;37.20
50854;BME280;44154;45.506;-122.806;2023-05-01T10:12:48;100342.53;;;24.49;37.37
50854;BME280;44154;45.506;-122.806;2023-05-01T10:15:16;100340.88;;;24.48;37.51
50854;BME280;44154;45.506;-122.806;2023-05-01T10:17:43;100324.09;;;24.34;37.44
50854;BME280;44154;45.506;-122.806;2023-05-01T10:20:12;100322.19;;;24.35;37.70
50854;BME280;44154;45.506;-122.806;2023-05-01T10:22:39;100338.41;;;24.47;37.76
50854;BME280;44154;45.506;-122.806;2023-05-01T10:25:12;100336.22;;;24.49;37.53
50854;BME280;44154;45.506;-122.806;2023-05-01T10:27:40;100330.47;;;24.45;37.62
50854;BME280;44154;45.506;-122.806;2023-05-01T10:30:08;100335.94;;;24.50;37.33
50854;BME280;44154;45.506;-122.806;2023-05-01T10:32:36;100344.69;;;24.47;37.50
50854;BME280;44154;45.506;-122.806;2023-05-01T10:35:11;100335.34;;;24.43;37.66
50854;BME280;44154;45.506;-122.806;2023-05-01T10:37:58;100329.88;;;24.43;37.61
50854;BME280;44154;45.506;-122.806;2023-05-01T10:40:47;100329.34;;;24.41;37.62
50854;BME280;44154;45.506;-122.806;2023-05-01T10:43:18;100337.00;;;24.39;37.71
50854;BME280;44154;45.506;-122.806;2023-05-01T10:45:47;100331.22;;;24.35;37.55
50854;BME280;44154;45.506;-122.806;2023-05-01T10:53:43;100300.78;;;24.21;37.81
50854;BME280;44154;45.506;-122.806;2023-05-01T10:59:00;100297.00;;;24.28;37.55
50854;BME280;44154;45.506;-122.806;2023-05-01T11:01:42;100311.81;;;24.37;37.39
50854;BME280;44154;45.506;-122.806;2023-05-01T11:09:48;100322.16;;;24.30;37.71
50854;BME280;44154;45.506;-122.806;2023-05-01T11:12:54;100322.16;;;24.24;38.09
50854;BME280;44154;45.506;-122.806;2023-05-01T11:15:33;100319.69;;;24.23;38.03
50854;BME280;44154;45.506;-122.806;2023-05-01T11:18:01;100320.75;;;24.22;38.30
50854;BME280;44154;45.506;-122.806;2023-05-01T11:22:55;100318.56;;;24.19;38.76
50854;BME280;44154;45.506;-122.806;2023-05-01T11:25:24;100314.13;;;24.13;38.29
50854;BME280;44154;45.506;-122.806;2023-05-01T11:27:57;100310.63;;;24.22;38.03
50854;BME280;44154;45.506;-122.806;2023-05-01T11:30:24;100312.28;;;24.23;38.29
50854;BME280;44154;45.506;-122.806;2023-05-01T11:32:51;100293.34;;;24.12;38.39
50854;BME280;44154;45.506;-122.806;2023-05-01T11:37:46;100299.09;;;24.15;38.13
50854;BME280;44154;45.506;-122.806;2023-05-01T11:40:21;100310.31;;;24.14;38.09
50854;BME280;44154;45.506;-122.806;2023-05-01T11:42:49;100307.31;;;24.15;38.23
50854;BME280;44154;45.506;-122.806;2023-05-01T11:45:15;100299.56;;;24.02;38.20
50854;BME280;44154;45.506;-122.806;2023-05-01T11:47:42;100302.38;;;24.12;38.13
50854;BME280;44154;45.506;-122.806;2023-05-01T11:50:09;100312.19;;;24.08;38.28
50854;BME280;44154;45.506;-122.806;2023-05-01T11:52:53;100311.09;;;24.09;38.16
50854;BME280;44154;45.506;-122.806;2023-05-01T11:55:20;100298.19;;;23.99;38.35
50854;BME280;44154;45.506;-122.806;2023-05-01T11:57:52;100314.97;;;24.13;38.17
50854;BME280;44154;45.506;-122.806;2023-05-01T12:00:27;100310.84;;;24.11;38.60
50854;BME280;44154;45.506;-122.806;2023-05-01T12:02:58;100288.00;;;23.89;38.03
50854;BME280;44154;45.506;-122.806;2023-05-01T12:05:27;100308.63;;;24.07;38.12
50854;BME280;44154;45.506;-122.806;2023-05-01T12:11:03;100284.97;;;23.86;38.15
50854;BME280;44154;45.506;-122.806;2023-05-01T12:13:31;100291.31;;;23.92;38.28
50854;BME280;44154;45.506;-122.806;2023-05-01T12:15:57;100311.84;;;23.99;38.30
50854;BME280;44154;45.506;-122.806;2023-05-01T12:18:24;100281.34;;;23.80;38.09
50854;BME280;44154;45.506;-122.806;2023-05-01T12:20:54;100304.19;;;23.96;38.16
50854;BME280;44154;45.506;-122.806;2023-05-01T12:23:50;100301.72;;;23.95;38.23
50854;BME280;44154;45.506;-122.806;2023-05-01T12:26:21;100296.78;;;23.97;38.12
50854;BME280;44154;45.506;-122.806;2023-05-01T12:28:58;100296.28;;;24.00;38.32
50854;BME280;44154;45.506;-122.806;2023-05-01T12:31:25;100306.66;;;23.98;38.38
50854;BME280;44154;45.506;-122.806;2023-05-01T12:34:02;100306.09;;;23.96;38.32
50854;BME280;44154;45.506;-122.806;2023-05-01T12:36:30;100303.88;;;23.93;38.33
50854;BME280;44154;45.506;-122.806;2023-05-01T12:39:07;100301.94;;;23.88;38.22
50854;BME280;44154;45.506;-122.806;2023-05-01T12:41:41;100271.44;;;23.69;38.38
50854;BME280;44154;45.506;-122.806;2023-05-01T12:44:16;100308.72;;;23.85;38.23
50854;BME280;44154;45.506;-122.806;2023-05-01T12:49:25;100293.41;;;23.84;38.46
50854;BME280;44154;45.506;-122.806;2023-05-01T12:51:53;100296.41;;;23.83;38.12
50854;BME280;44154;45.506;-122.806;2023-05-01T12:54:31;100295.03;;;23.85;38.07
50854;BME280;44154;45.506;-122.806;2023-05-01T12:57:11;100299.47;;;23.86;38.19
50854;BME280;44154;45.506;-122.806;2023-05-01T12:59:40;100300.22;;;23.82;38.60
50854;BME280;44154;45.506;-122.806;2023-05-01T13:02:11;100302.78;;;23.88;38.48
50854;BME280;44154;45.506;-122.806;2023-05-01T13:04:42;100296.41;;;23.83;38.24